Paoli, IN (47454)

2:37 AM EDT on July 28, 2015 (GMT -0400)
Babcock Addition | | Change Station
CLOSE
Current Station
Personal Weather Station
Location: Paoli, IN
Elevation: 679 ft
Nearby Weather Stations

Elev 679 ft 38.57 °N, 86.47 °W | Updated 7 minutes ago

Partly Cloudy
Partly Cloudy
76.0 °F
Feels Like 76 °F
N
6.0
Wind Variable Wind from NE
Gusts 9.0 mph

Today
High -- | Low -- °F
--% Chance of Precip.
Yesterday
High -- | Low -- °F
Precip. -- in
6:43 AM 9:00 PM
Waxing Gibbous, 87% visible
Pressure 29.95 in
Visibility 7.0 miles
Clouds Few 3300 ft
Heat Index 76 °F
Dew Point 74 °F
Humidity 94%
Rainfall 0.00 in
Snow Depth Not available.
UV 0 out of 12
Pollen 5.40 out of 12
Air Quality Not available.
Flu Activity Not available.
METAR KHNB 280635Z AUTO 00000KT 7SM FEW033 26/23 A2995 RMK AO1

More Conditions Fewer Conditions

Pressure 29.95 in
Visibility 7.0 miles
Clouds Few 3300 ft
Heat Index 76 °F
Dew Point 74 °F
Humidity 94%
Rainfall 0.00 in
Snow Depth Not available.
UV 0 out of 12
Pollen 5.40 out of 12
Air Quality Not available.
Flu Activity Not available.
METAR KHNB 280635Z AUTO 00000KT 7SM FEW033 26/23 A2995 RMK AO1

More Conditions Fewer Conditions

10-Day Weather Forecast

×

Almanac

Astronomy

Jul. 28, 2015 Rise Set
Actual Time
Civil Twilight
Nautical Twilight
Astronomical Twilight
Moon
Length of Visible Light
Length of Day
Tomorrow will be .
, % of the Moon is Illuminated

Today's Extremes

State Highs State Lows

Community

WunderPhotos

Upload Photos

1,841,796 photos uploaded!

WunderBlogs® & News

Nearby

Air Quality

  Air Quality AQ Index Pollutant
Not available.

Snow Depth

Station Depth Elevation

Earthquake Activity

City Distance Mag. Time & Date
Minimum magnitude displayed is 2.5.

Coastal Water Temperatures

Place Temperature

Stations

Nearby Weather Stations

Station Location Temp. Windchill Dew Point Humidity Wind Precip. Elev Updated Type